sensor_id;sensor_type;location;lat;lon;timestamp;pressure;altitude;pressure_sealevel;temperature;humidity
84710;BME280;75589;42.648;23.274;2024-02-15T00:00:20;93873.88;;;2.21;63.09
84710;BME280;75589;42.648;23.274;2024-02-15T00:02:47;93889.88;;;2.28;64.71
84710;BME280;75589;42.648;23.274;2024-02-15T00:05:13;93878.97;;;2.21;63.51
84710;BME280;75589;42.648;23.274;2024-02-15T00:07:40;93871.66;;;2.13;63.46
84710;BME280;75589;42.648;23.274;2024-02-15T00:10:05;93863.75;;;2.03;65.12
84710;BME280;75589;42.648;23.274;2024-02-15T00:12:31;93883.66;;;2.24;64.96
84710;BME280;75589;42.648;23.274;2024-02-15T00:14:57;93857.78;;;2.09;63.87
84710;BME280;75589;42.648;23.274;2024-02-15T00:17:26;93877.09;;;2.17;63.78
84710;BME280;75589;42.648;23.274;2024-02-15T00:19:54;93885.00;;;2.15;63.60
84710;BME280;75589;42.648;23.274;2024-02-15T00:22:20;93874.88;;;2.09;64.62
84710;BME280;75589;42.648;23.274;2024-02-15T00:24:46;93887.84;;;2.19;64.26
84710;BME280;75589;42.648;23.274;2024-02-15T00:27:14;93871.31;;;2.10;64.54
84710;BME280;75589;42.648;23.274;2024-02-15T00:29:40;93881.84;;;2.13;63.63
84710;BME280;75589;42.648;23.274;2024-02-15T00:32:06;93894.53;;;2.20;63.87
84710;BME280;75589;42.648;23.274;2024-02-15T00:34:32;93900.19;;;2.22;63.12
84710;BME280;75589;42.648;23.274;2024-02-15T00:36:58;93883.44;;;2.14;64.58
84710;BME280;75589;42.648;23.274;2024-02-15T00:39:24;93904.41;;;2.16;65.12
84710;BME280;75589;42.648;23.274;2024-02-15T00:41:50;93886.66;;;2.10;64.13
84710;BME280;75589;42.648;23.274;2024-02-15T00:44:15;93892.66;;;2.15;64.32
84710;BME280;75589;42.648;23.274;2024-02-15T00:46:43;93908.28;;;2.19;66.81
84710;BME280;75589;42.648;23.274;2024-02-15T00:49:08;93891.09;;;2.14;64.07
84710;BME280;75589;42.648;23.274;2024-02-15T00:51:35;93902.75;;;2.22;63.91
84710;BME280;75589;42.648;23.274;2024-02-15T00:54:02;93904.31;;;2.23;65.49
84710;BME280;75589;42.648;23.274;2024-02-15T00:56:28;93895.75;;;2.17;64.43
84710;BME280;75589;42.648;23.274;2024-02-15T00:58:56;93894.31;;;2.21;63.73
84710;BME280;75589;42.648;23.274;2024-02-15T01:01:22;93885.00;;;2.15;63.16
84710;BME280;75589;42.648;23.274;2024-02-15T01:03:47;93887.53;;;2.15;66.87
84710;BME280;75589;42.648;23.274;2024-02-15T01:06:13;93905.84;;;2.24;63.29
84710;BME280;75589;42.648;23.274;2024-02-15T01:08:39;93887.53;;;2.15;65.42
84710;BME280;75589;42.648;23.274;2024-02-15T01:11:04;93899.41;;;2.21;65.74
84710;BME280;75589;42.648;23.274;2024-02-15T01:13:31;93890.66;;;2.17;63.94
84710;BME280;75589;42.648;23.274;2024-02-15T01:15:57;93896.19;;;2.14;64.95
84710;BME280;75589;42.648;23.274;2024-02-15T01:18:22;93874.56;;;2.05;66.18
84710;BME280;75589;42.648;23.274;2024-02-15T01:20:48;93876.88;;;2.07;67.32
84710;BME280;75589;42.648;23.274;2024-02-15T01:23:13;93884.75;;;2.17;64.65
84710;BME280;75589;42.648;23.274;2024-02-15T01:25:39;93888.66;;;2.19;66.90
84710;BME280;75589;42.648;23.274;2024-02-15T01:28:05;93875.66;;;2.09;64.02
84710;BME280;75589;42.648;23.274;2024-02-15T01:30:31;93882.00;;;2.18;64.00
84710;BME280;75589;42.648;23.274;2024-02-15T01:32:57;93887.22;;;2.23;64.06
84710;BME280;75589;42.648;23.274;2024-02-15T01:35:23;93876.09;;;2.18;65.50
84710;BME280;75589;42.648;23.274;2024-02-15T01:37:49;93879.22;;;2.20;66.69
84710;BME280;75589;42.648;23.274;2024-02-15T01:40:15;93896.41;;;2.24;63.85
84710;BME280;75589;42.648;23.274;2024-02-15T01:42:41;93881.31;;;2.11;64.32
84710;BME280;75589;42.648;23.274;2024-02-15T01:45:07;93896.31;;;2.19;65.85
84710;BME280;75589;42.648;23.274;2024-02-15T01:47:32;93884.56;;;2.18;63.58
84710;BME280;75589;42.648;23.274;2024-02-15T01:49:58;93876.09;;;2.06;64.73
84710;BME280;75589;42.648;23.274;2024-02-15T01:52:24;93892.06;;;2.13;65.31
84710;BME280;75589;42.648;23.274;2024-02-15T01:54:53;93895.66;;;2.12;64.33
84710;BME280;75589;42.648;23.274;2024-02-15T01:57:19;93895.53;;;2.19;64.89
84710;BME280;75589;42.648;23.274;2024-02-15T01:59:50;93900.09;;;2.17;64.16
84710;BME280;75589;42.648;23.274;2024-02-15T02:02:18;93891.22;;;2.08;64.05
84710;BME280;75589;42.648;23.274;2024-02-15T02:04:45;93899.31;;;2.16;63.13
84710;BME280;75589;42.648;23.274;2024-02-15T02:07:11;93900.41;;;2.09;63.79
84710;BME280;75589;42.648;23.274;2024-02-15T02:09:37;93891.84;;;2.03;63.65
84710;BME280;75589;42.648;23.274;2024-02-15T02:12:02;93887.41;;;1.99;64.57
84710;BME280;75589;42.648;23.274;2024-02-15T02:14:29;93904.06;;;2.01;65.50
84710;BME280;75589;42.648;23.274;2024-02-15T02:16:54;93881.75;;;1.97;67.84
84710;BME280;75589;42.648;23.274;2024-02-15T02:19:20;93898.53;;;1.93;68.27
84710;BME280;75589;42.648;23.274;2024-02-15T02:21:46;93887.84;;;1.96;66.32
84710;BME280;75589;42.648;23.274;2024-02-15T02:24:21;93897.97;;;2.02;64.33
84710;BME280;75589;42.648;23.274;2024-02-15T02:26:47;93888.31;;;1.93;64.75
84710;BME280;75589;42.648;23.274;2024-02-15T02:29:15;93897.63;;;1.99;65.26
84710;BME280;75589;42.648;23.274;2024-02-15T02:31:40;93897.84;;;1.97;64.82
84710;BME280;75589;42.648;23.274;2024-02-15T02:34:08;93906.84;;;2.11;63.93
84710;BME280;75589;42.648;23.274;2024-02-15T02:36:34;93896.84;;;1.98;65.84
84710;BME280;75589;42.648;23.274;2024-02-15T02:39:00;93891.63;;;1.93;64.32
84710;BME280;75589;42.648;23.274;2024-02-15T02:41:29;93906.06;;;1.99;63.50
84710;BME280;75589;42.648;23.274;2024-02-15T02:43:57;93895.50;;;1.96;63.83
84710;BME280;75589;42.648;23.274;2024-02-15T02:46:23;93911.84;;;2.06;63.21
84710;BME280;75589;42.648;23.274;2024-02-15T02:48:48;93907.28;;;1.97;63.67
84710;BME280;75589;42.648;23.274;2024-02-15T02:51:15;93896.63;;;1.88;66.43
84710;BME280;75589;42.648;23.274;2024-02-15T02:53:41;93907.41;;;2.02;64.17
84710;BME280;75589;42.648;23.274;2024-02-15T02:56:06;93916.41;;;2.04;65.26
84710;BME280;75589;42.648;23.274;2024-02-15T02:58:34;93911.19;;;1.99;64.25
84710;BME280;75589;42.648;23.274;2024-02-15T03:01:00;93907.59;;;1.88;67.59
84710;BME280;75589;42.648;23.274;2024-02-15T03:03:26;93913.94;;;1.86;65.51
84710;BME280;75589;42.648;23.274;2024-02-15T03:05:51;93879.53;;;1.77;65.22
84710;BME280;75589;42.648;23.274;2024-02-15T03:08:17;93897.63;;;1.87;63.55
84710;BME280;75589;42.648;23.274;2024-02-15T03:10:43;93902.06;;;1.92;66.02
84710;BME280;75589;42.648;23.274;2024-02-15T03:13:08;93909.94;;;1.90;66.53
84710;BME280;75589;42.648;23.274;2024-02-15T03:15:34;93917.63;;;2.02;65.00
84710;BME280;75589;42.648;23.274;2024-02-15T03:18:00;93907.84;;;1.87;64.82
84710;BME280;75589;42.648;23.274;2024-02-15T03:20:25;93915.50;;;1.99;65.06
84710;BME280;75589;42.648;23.274;2024-02-15T03:22:55;93918.59;;;2.01;65.29
84710;BME280;75589;42.648;23.274;2024-02-15T03:25:21;93921.50;;;2.04;67.55
84710;BME280;75589;42.648;23.274;2024-02-15T03:27:53;93911.41;;;1.98;63.98
84710;BME280;75589;42.648;23.274;2024-02-15T03:30:20;93914.72;;;1.98;63.25
84710;BME280;75589;42.648;23.274;2024-02-15T03:32:49;93915.19;;;1.95;63.88
84710;BME280;75589;42.648;23.274;2024-02-15T03:35:18;93920.38;;;1.88;65.40
84710;BME280;75589;42.648;23.274;2024-02-15T03:37:43;93901.59;;;1.83;66.40
84710;BME280;75589;42.648;23.274;2024-02-15T03:40:09;93921.25;;;1.82;66.46
84710;BME280;75589;42.648;23.274;2024-02-15T03:42:37;93917.25;;;1.86;65.06
84710;BME280;75589;42.648;23.274;2024-02-15T03:45:04;93917.69;;;1.83;66.46
84710;BME280;75589;42.648;23.274;2024-02-15T03:47:34;93916.84;;;1.89;64.30
84710;BME280;75589;42.648;23.274;2024-02-15T03:50:04;93936.72;;;1.99;63.73
84710;BME280;75589;42.648;23.274;2024-02-15T03:52:31;93918.56;;;1.77;63.72
84710;BME280;75589;42.648;23.274;2024-02-15T03:54:57;93929.38;;;1.79;63.55
84710;BME280;75589;42.648;23.274;2024-02-15T03:57:23;93906.78;;;1.65;65.65
84710;BME280;75589;42.648;23.274;2024-02-15T03:59:50;93932.31;;;1.65;66.55
84710;BME280;75589;42.648;23.274;2024-02-15T04:02:18;93935.09;;;1.75;67.15
84710;BME280;75589;42.648;23.274;2024-02-15T04:04:44;93910.47;;;1.69;64.77
84710;BME280;75589;42.648;23.274;2024-02-15T04:07:13;93931.78;;;1.74;64.98
84710;BME280;75589;42.648;23.274;2024-02-15T04:09:40;93925.53;;;1.59;68.88
84710;BME280;75589;42.648;23.274;2024-02-15T04:12:05;93953.13;;;1.50;66.56
84710;BME280;75589;42.648;23.274;2024-02-15T04:14:32;93944.22;;;1.41;69.25
84710;BME280;75589;42.648;23.274;2024-02-15T04:16:59;93928.03;;;1.47;65.95
84710;BME280;75589;42.648;23.274;2024-02-15T04:19:24;93928.16;;;1.52;66.24
84710;BME280;75589;42.648;23.274;2024-02-15T04:21:50;93928.09;;;1.59;64.84
84710;BME280;75589;42.648;23.274;2024-02-15T04:24:16;93922.28;;;1.52;65.73
84710;BME280;75589;42.648;23.274;2024-02-15T04:26:42;93940.25;;;1.57;65.70
84710;BME280;75589;42.648;23.274;2024-02-15T04:29:07;93920.56;;;1.34;65.47
84710;BME280;75589;42.648;23.274;2024-02-15T04:31:34;93941.03;;;1.46;65.87
84710;BME280;75589;42.648;23.274;2024-02-15T04:34:04;93955.31;;;1.47;65.89
84710;BME280;75589;42.648;23.274;2024-02-15T04:36:29;93959.00;;;1.51;66.60
84710;BME280;75589;42.648;23.274;2024-02-15T04:38:59;93944.00;;;1.43;68.84
84710;BME280;75589;42.648;23.274;2024-02-15T04:41:26;93950.72;;;1.37;69.14
84710;BME280;75589;42.648;23.274;2024-02-15T04:43:52;93953.69;;;1.52;66.88
84710;BME280;75589;42.648;23.274;2024-02-15T04:46:18;93959.13;;;1.56;66.40
84710;BME280;75589;42.648;23.274;2024-02-15T04:48:47;93960.69;;;1.57;66.59
84710;BME280;75589;42.648;23.274;2024-02-15T04:51:15;93961.63;;;1.44;65.22
84710;BME280;75589;42.648;23.274;2024-02-15T04:53:42;93950.97;;;1.36;66.75
84710;BME280;75589;42.648;23.274;2024-02-15T04:56:08;93956.25;;;1.34;64.25
84710;BME280;75589;42.648;23.274;2024-02-15T04:58:41;93960.59;;;1.34;67.49
84710;BME280;75589;42.648;23.274;2024-02-15T05:01:14;93956.97;;;1.41;67.70
84710;BME280;75589;42.648;23.274;2024-02-15T05:03:41;93971.06;;;1.44;67.34
84710;BME280;75589;42.648;23.274;2024-02-15T05:06:07;93955.06;;;1.37;66.01
84710;BME280;75589;42.648;23.274;2024-02-15T05:08:33;93963.13;;;1.34;64.37
84710;BME280;75589;42.648;23.274;2024-02-15T05:11:02;93984.81;;;1.43;64.75
84710;BME280;75589;42.648;23.274;2024-02-15T05:13:29;93998.22;;;1.38;67.76
84710;BME280;75589;42.648;23.274;2024-02-15T05:15:55;93966.19;;;1.24;66.11
84710;BME280;75589;42.648;23.274;2024-02-15T05:18:20;93987.00;;;1.39;66.05
84710;BME280;75589;42.648;23.274;2024-02-15T05:20:46;93989.69;;;1.44;66.41
84710;BME280;75589;42.648;23.274;2024-02-15T05:23:11;93980.22;;;1.33;67.21
84710;BME280;75589;42.648;23.274;2024-02-15T05:25:37;93980.56;;;1.37;65.90
84710;BME280;75589;42.648;23.274;2024-02-15T05:28:03;93989.44;;;1.34;69.29
84710;BME280;75589;42.648;23.274;2024-02-15T05:30:31;93997.88;;;1.35;66.38
84710;BME280;75589;42.648;23.274;2024-02-15T05:32:58;93992.84;;;1.46;67.78
84710;BME280;75589;42.648;23.274;2024-02-15T05:35:23;93992.25;;;1.44;65.15
84710;BME280;75589;42.648;23.274;2024-02-15T05:37:50;93996.22;;;1.40;67.86
84710;BME280;75589;42.648;23.274;2024-02-15T05:40:18;94006.06;;;1.37;65.14
84710;BME280;75589;42.648;23.274;2024-02-15T05:42:45;94004.13;;;1.39;65.62
84710;BME280;75589;42.648;23.274;2024-02-15T05:47:50;94000.13;;;1.43;64.67
84710;BME280;75589;42.648;23.274;2024-02-15T05:50:15;94008.19;;;1.40;65.14
84710;BME280;75589;42.648;23.274;2024-02-15T05:52:41;94005.47;;;1.23;65.88
84710;BME280;75589;42.648;23.274;2024-02-15T05:55:07;94018.50;;;1.33;67.17
84710;BME280;75589;42.648;23.274;2024-02-15T05:57:33;94003.47;;;1.25;66.43
84710;BME280;75589;42.648;23.274;2024-02-15T05:59:58;94019.84;;;1.36;67.14
84710;BME280;75589;42.648;23.274;2024-02-15T06:02:27;94010.47;;;1.30;66.49
84710;BME280;75589;42.648;23.274;2024-02-15T06:04:53;94013.41;;;1.33;65.91
84710;BME280;75589;42.648;23.274;2024-02-15T06:07:19;94023.50;;;1.40;65.22
84710;BME280;75589;42.648;23.274;2024-02-15T06:09:46;94017.34;;;1.47;65.21
84710;BME280;75589;42.648;23.274;2024-02-15T06:12:11;94018.13;;;1.48;64.61
84710;BME280;75589;42.648;23.274;2024-02-15T06:14:37;94009.91;;;1.46;65.17
84710;BME280;75589;42.648;23.274;2024-02-15T06:17:02;94036.59;;;1.61;66.37
84710;BME280;75589;42.648;23.274;2024-02-15T06:19:28;94031.25;;;1.51;65.61
84710;BME280;75589;42.648;23.274;2024-02-15T06:21:53;94030.31;;;1.46;66.71
84710;BME280;75589;42.648;23.274;2024-02-15T06:24:19;94038.31;;;1.49;66.37
84710;BME280;75589;42.648;23.274;2024-02-15T06:26:44;94035.03;;;1.60;65.91
84710;BME280;75589;42.648;23.274;2024-02-15T06:29:10;94037.66;;;1.72;64.40
84710;BME280;75589;42.648;23.274;2024-02-15T06:31:55;94030.75;;;1.72;64.95
84710;BME280;75589;42.648;23.274;2024-02-15T06:34:39;94038.22;;;1.74;64.24
84710;BME280;75589;42.648;23.274;2024-02-15T06:37:38;94036.34;;;1.81;63.59
84710;BME280;75589;42.648;23.274;2024-02-15T06:40:23;94032.59;;;1.83;64.44
84710;BME280;75589;42.648;23.274;2024-02-15T06:42:48;94040.72;;;1.92;64.95
84710;BME280;75589;42.648;23.274;2024-02-15T06:45:14;94050.78;;;2.05;62.98
84710;BME280;75589;42.648;23.274;2024-02-15T06:47:43;94055.78;;;2.12;63.39
84710;BME280;75589;42.648;23.274;2024-02-15T06:50:11;94061.78;;;2.17;62.66
84710;BME280;75589;42.648;23.274;2024-02-15T06:52:37;94065.34;;;2.16;64.94
84710;BME280;75589;42.648;23.274;2024-02-15T06:55:05;94047.38;;;1.93;64.34
84710;BME280;75589;42.648;23.274;2024-02-15T06:57:30;94055.88;;;2.05;62.82
84710;BME280;75589;42.648;23.274;2024-02-15T06:59:56;94064.50;;;1.93;65.68
84710;BME280;75589;42.648;23.274;2024-02-15T07:02:22;94058.88;;;2.02;62.81
84710;BME280;75589;42.648;23.274;2024-02-15T07:04:48;94046.69;;;1.86;64.37
84710;BME280;75589;42.648;23.274;2024-02-15T07:07:14;94043.59;;;1.84;63.70
84710;BME280;75589;42.648;23.274;2024-02-15T07:09:40;94051.72;;;1.93;62.90
84710;BME280;75589;42.648;23.274;2024-02-15T07:12:05;94055.28;;;2.03;62.79
84710;BME280;75589;42.648;23.274;2024-02-15T07:14:31;94050.66;;;2.00;64.07
84710;BME280;75589;42.648;23.274;2024-02-15T07:16:57;94062.28;;;1.96;62.82
84710;BME280;75589;42.648;23.274;2024-02-15T07:19:23;94040.31;;;1.95;66.33
84710;BME280;75589;42.648;23.274;2024-02-15T07:21:49;94056.97;;;1.98;63.55
84710;BME280;75589;42.648;23.274;2024-02-15T07:24:16;94047.91;;;1.83;64.85
84710;BME280;75589;42.648;23.274;2024-02-15T07:26:41;94034.44;;;1.76;63.48
84710;BME280;75589;42.648;23.274;2024-02-15T07:29:07;94046.56;;;1.81;64.48
84710;BME280;75589;42.648;23.274;2024-02-15T07:31:33;94034.31;;;1.71;62.04
84710;BME280;75589;42.648;23.274;2024-02-15T07:33:59;94048.84;;;1.71;63.18
84710;BME280;75589;42.648;23.274;2024-02-15T07:36:25;94028.19;;;1.72;62.33
84710;BME280;75589;42.648;23.274;2024-02-15T07:38:53;94037.00;;;1.76;64.06
84710;BME280;75589;42.648;23.274;2024-02-15T07:41:21;94025.53;;;1.67;61.65
84710;BME280;75589;42.648;23.274;2024-02-15T07:43:48;94035.44;;;1.75;62.18
84710;BME280;75589;42.648;23.274;2024-02-15T07:46:14;94022.00;;;1.80;62.07
84710;BME280;75589;42.648;23.274;2024-02-15T07:48:45;94034.34;;;1.83;62.50
84710;BME280;75589;42.648;23.274;2024-02-15T07:51:17;94024.56;;;1.80;66.15
84710;BME280;75589;42.648;23.274;2024-02-15T07:53:46;94030.59;;;1.85;63.98
84710;BME280;75589;42.648;23.274;2024-02-15T07:56:13;94025.91;;;1.82;64.02
84710;BME280;75589;42.648;23.274;2024-02-15T07:58:43;94026.25;;;1.74;65.93
84710;BME280;75589;42.648;23.274;2024-02-15T08:01:12;94041.06;;;1.96;64.50
84710;BME280;75589;42.648;23.274;2024-02-15T08:03:38;94039.41;;;2.01;62.67
84710;BME280;75589;42.648;23.274;2024-02-15T08:06:08;94037.91;;;1.82;65.09
84710;BME280;75589;42.648;23.274;2024-02-15T08:08:34;94032.28;;;1.92;64.49
84710;BME280;75589;42.648;23.274;2024-02-15T08:11:03;94033.53;;;2.01;64.27
84710;BME280;75589;42.648;23.274;2024-02-15T08:13:29;94025.66;;;2.02;64.40
84710;BME280;75589;42.648;23.274;2024-02-15T08:15:55;94024.09;;;2.01;63.03
84710;BME280;75589;42.648;23.274;2024-02-15T08:18:21;94022.75;;;1.99;65.13
84710;BME280;75589;42.648;23.274;2024-02-15T08:20:47;94028.66;;;2.11;64.06
84710;BME280;75589;42.648;23.274;2024-02-15T08:23:12;94031.97;;;2.00;65.53
84710;BME280;75589;42.648;23.274;2024-02-15T08:25:38;94018.84;;;1.84;64.74
84710;BME280;75589;42.648;23.274;2024-02-15T08:28:06;94024.31;;;2.00;65.07
84710;BME280;75589;42.648;23.274;2024-02-15T08:30:33;94022.94;;;2.27;62.48
84710;BME280;75589;42.648;23.274;2024-02-15T08:32:58;94026.28;;;2.27;65.55
84710;BME280;75589;42.648;23.274;2024-02-15T08:35:24;94012.59;;;2.22;67.92
84710;BME280;75589;42.648;23.274;2024-02-15T08:37:49;94028.53;;;2.47;63.92
84710;BME280;75589;42.648;23.274;2024-02-15T08:40:17;94022.66;;;2.46;63.55
84710;BME280;75589;42.648;23.274;2024-02-15T08:42:45;94021.44;;;2.49;64.70
84710;BME280;75589;42.648;23.274;2024-02-15T08:45:13;94006.75;;;2.33;62.99
84710;BME280;75589;42.648;23.274;2024-02-15T08:47:40;94006.19;;;2.31;63.56
84710;BME280;75589;42.648;23.274;2024-02-15T08:50:07;94016.75;;;2.46;63.35
84710;BME280;75589;42.648;23.274;2024-02-15T08:52:36;94006.41;;;2.41;65.56
84710;BME280;75589;42.648;23.274;2024-02-15T08:57:32;94007.97;;;2.53;64.81
84710;BME280;75589;42.648;23.274;2024-02-15T08:59:58;94013.41;;;2.45;65.69
84710;BME280;75589;42.648;23.274;2024-02-15T09:02:23;94001.84;;;2.54;63.10
84710;BME280;75589;42.648;23.274;2024-02-15T09:04:49;94005.97;;;2.67;65.42
84710;BME280;75589;42.648;23.274;2024-02-15T09:07:14;94012.09;;;2.66;64.45
84710;BME280;75589;42.648;23.274;2024-02-15T09:09:40;94006.66;;;2.74;62.31
84710;BME280;75589;42.648;23.274;2024-02-15T09:12:06;93995.53;;;2.69;63.29
84710;BME280;75589;42.648;23.274;2024-02-15T09:14:32;93991.97;;;2.70;64.95
84710;BME280;75589;42.648;23.274;2024-02-15T09:16:59;94000.75;;;2.85;63.09
84710;BME280;75589;42.648;23.274;2024-02-15T09:19:25;94006.97;;;3.01;62.36
84710;BME280;75589;42.648;23.274;2024-02-15T09:21:50;94007.41;;;3.09;61.52
84710;BME280;75589;42.648;23.274;2024-02-15T09:24:15;93998.53;;;3.00;62.28
84710;BME280;75589;42.648;23.274;2024-02-15T09:26:42;94000.97;;;3.07;64.59
84710;BME280;75589;42.648;23.274;2024-02-15T09:29:09;94008.41;;;3.08;63.38
84710;BME280;75589;42.648;23.274;2024-02-15T09:31:35;93992.75;;;3.05;63.22
84710;BME280;75589;42.648;23.274;2024-02-15T09:34:01;94000.28;;;3.11;62.26
84710;BME280;75589;42.648;23.274;2024-02-15T09:36:27;94004.97;;;3.03;61.38
84710;BME280;75589;42.648;23.274;2024-02-15T09:38:53;93984.81;;;3.06;61.89
84710;BME280;75589;42.648;23.274;2024-02-15T09:41:19;93999.69;;;3.21;60.35
84710;BME280;75589;42.648;23.274;2024-02-15T09:43:44;93992.03;;;3.21;62.76
84710;BME280;75589;42.648;23.274;2024-02-15T09:46:10;93978.69;;;3.19;62.08
84710;BME280;75589;42.648;23.274;2024-02-15T09:48:36;93989.69;;;3.20;61.78
84710;BME280;75589;42.648;23.274;2024-02-15T09:51:03;93975.03;;;3.15;63.29
84710;BME280;75589;42.648;23.274;2024-02-15T09:53:29;94000.75;;;3.48;61.79
84710;BME280;75589;42.648;23.274;2024-02-15T09:55:55;93987.31;;;3.41;63.56
84710;BME280;75589;42.648;23.274;2024-02-15T09:58:21;93995.72;;;3.53;62.07
84710;BME280;75589;42.648;23.274;2024-02-15T10:00:49;93979.16;;;3.56;62.96
84710;BME280;75589;42.648;23.274;2024-02-15T10:03:18;93981.94;;;3.54;64.05
84710;BME280;75589;42.648;23.274;2024-02-15T10:05:48;93973.13;;;3.62;63.86
84710;BME280;75589;42.648;23.274;2024-02-15T10:08:15;93974.34;;;3.59;62.23
84710;BME280;75589;42.648;23.274;2024-02-15T10:10:41;93979.47;;;3.59;61.93
84710;BME280;75589;42.648;23.274;2024-02-15T10:13:12;93959.09;;;3.64;61.54
84710;BME280;75589;42.648;23.274;2024-02-15T10:15:39;93972.59;;;3.76;62.30
84710;BME280;75589;42.648;23.274;2024-02-15T10:18:10;93968.81;;;3.79;62.13
84710;BME280;75589;42.648;23.274;2024-02-15T10:20:40;93956.81;;;3.68;64.61
84710;BME280;75589;42.648;23.274;2024-02-15T10:23:13;93959.47;;;3.73;61.48
84710;BME280;75589;42.648;23.274;2024-02-15T10:25:43;93960.88;;;3.80;61.79
84710;BME280;75589;42.648;23.274;2024-02-15T10:28:12;93951.03;;;3.89;60.43
84710;BME280;75589;42.648;23.274;2024-02-15T10:30:42;93948.88;;;3.98;62.08
84710;BME280;75589;42.648;23.274;2024-02-15T10:33:09;93940.19;;;3.99;60.96
84710;BME280;75589;42.648;23.274;2024-02-15T10:35:35;93958.94;;;4.16;60.81
84710;BME280;75589;42.648;23.274;2024-02-15T10:38:09;93944.38;;;4.05;60.92
84710;BME280;75589;42.648;23.274;2024-02-15T10:40:36;93955.41;;;4.05;61.22
84710;BME280;75589;42.648;23.274;2024-02-15T10:43:05;93940.34;;;3.92;60.04
84710;BME280;75589;42.648;23.274;2024-02-15T10:45:34;93949.97;;;4.02;60.27
84710;BME280;75589;42.648;23.274;2024-02-15T10:48:02;93945.69;;;4.24;58.76
84710;BME280;75589;42.648;23.274;2024-02-15T10:50:30;93939.50;;;4.36;59.19
84710;BME280;75589;42.648;23.274;2024-02-15T10:52:57;93926.91;;;4.35;60.21
84710;BME280;75589;42.648;23.274;2024-02-15T10:55:38;93930.41;;;4.29;60.31
84710;BME280;75589;42.648;23.274;2024-02-15T10:58:06;93923.19;;;4.26;61.00
84710;BME280;75589;42.648;23.274;2024-02-15T11:00:34;93932.88;;;4.40;61.17
84710;BME280;75589;42.648;23.274;2024-02-15T11:03:07;93914.69;;;4.42;60.26
84710;BME280;75589;42.648;23.274;2024-02-15T11:05:36;93939.09;;;4.61;58.73
84710;BME280;75589;42.648;23.274;2024-02-15T11:08:06;93930.66;;;4.44;61.23
84710;BME280;75589;42.648;23.274;2024-02-15T11:10:35;93917.50;;;4.40;59.13
84710;BME280;75589;42.648;23.274;2024-02-15T11:13:02;93923.69;;;4.61;60.42
84710;BME280;75589;42.648;23.274;2024-02-15T11:15:41;93923.72;;;4.83;59.54
84710;BME280;75589;42.648;23.274;2024-02-15T11:18:07;93899.75;;;4.72;56.25
84710;BME280;75589;42.648;23.274;2024-02-15T11:23:02;93902.66;;;4.81;59.54
84710;BME280;75589;42.648;23.274;2024-02-15T11:25:35;93909.88;;;4.84;58.26
84710;BME280;75589;42.648;23.274;2024-02-15T11:30:46;93914.84;;;4.90;59.39
84710;BME280;75589;42.648;23.274;2024-02-15T11:33:30;93920.75;;;5.13;57.22
84710;BME280;75589;42.648;23.274;2024-02-15T11:38:33;93907.63;;;5.31;56.66
84710;BME280;75589;42.648;23.274;2024-02-15T11:41:00;93922.97;;;5.26;58.14
84710;BME280;75589;42.648;23.274;2024-02-15T11:46:20;93893.41;;;5.23;55.94
84710;BME280;75589;42.648;23.274;2024-02-15T11:48:49;93897.34;;;5.31;55.48
84710;BME280;75589;42.648;23.274;2024-02-15T11:54:06;93904.53;;;5.29;55.12
84710;BME280;75589;42.648;23.274;2024-02-15T11:56:33;93889.94;;;5.34;54.42
84710;BME280;75589;42.648;23.274;2024-02-15T11:59:16;93905.31;;;5.56;55.54
84710;BME280;75589;42.648;23.274;2024-02-15T12:01:59;93912.00;;;5.57;58.11
84710;BME280;75589;42.648;23.274;2024-02-15T12:04:43;93898.66;;;5.60;57.19
84710;BME280;75589;42.648;23.274;2024-02-15T12:07:28;93897.94;;;5.64;55.98
84710;BME280;75589;42.648;23.274;2024-02-15T12:10:19;93898.81;;;5.48;57.16
84710;BME280;75589;42.648;23.274;2024-02-15T12:13:03;93894.69;;;5.47;58.13
84710;BME280;75589;42.648;23.274;2024-02-15T12:16:00;93886.66;;;5.39;57.28
84710;BME280;75589;42.648;23.274;2024-02-15T12:18:45;93892.06;;;5.42;59.96
84710;BME280;75589;42.648;23.274;2024-02-15T12:21:18;93879.53;;;5.46;58.37
84710;BME280;75589;42.648;23.274;2024-02-15T12:23:46;93892.13;;;5.47;60.68
84710;BME280;75589;42.648;23.274;2024-02-15T12:26:12;93894.59;;;5.64;56.57
84710;BME280;75589;42.648;23.274;2024-02-15T12:28:41;93886.69;;;5.70;57.62
84710;BME280;75589;42.648;23.274;2024-02-15T12:31:08;93879.75;;;5.71;56.78
84710;BME280;75589;42.648;23.274;2024-02-15T12:33:35;93865.28;;;5.87;58.18
84710;BME280;75589;42.648;23.274;2024-02-15T12:36:04;93873.56;;;5.94;57.54
84710;BME280;75589;42.648;23.274;2024-02-15T12:38:33;93876.75;;;6.06;53.74
84710;BME280;75589;42.648;23.274;2024-02-15T12:41:03;93872.66;;;6.10;55.88
84710;BME280;75589;42.648;23.274;2024-02-15T12:43:29;93865.34;;;5.97;54.71
84710;BME280;75589;42.648;23.274;2024-02-15T12:45:55;93871.38;;;6.12;54.23
84710;BME280;75589;42.648;23.274;2024-02-15T12:48:22;93859.25;;;6.03;54.69
84710;BME280;75589;42.648;23.274;2024-02-15T12:50:48;93874.25;;;6.16;55.63
84710;BME280;75589;42.648;23.274;2024-02-15T12:53:20;93866.81;;;6.19;55.29
84710;BME280;75589;42.648;23.274;2024-02-15T12:55:52;93861.94;;;6.23;54.06
84710;BME280;75589;42.648;23.274;2024-02-15T12:58:20;93861.94;;;6.23;55.22
84710;BME280;75589;42.648;23.274;2024-02-15T13:00:45;93857.31;;;6.20;56.34
84710;BME280;75589;42.648;23.274;2024-02-15T13:03:12;93866.59;;;6.26;55.31
84710;BME280;75589;42.648;23.274;2024-02-15T13:05:39;93862.78;;;6.34;54.61
84710;BME280;75589;42.648;23.274;2024-02-15T13:08:05;93857.81;;;6.22;52.96
84710;BME280;75589;42.648;23.274;2024-02-15T13:10:35;93857.78;;;6.17;53.25
84710;BME280;75589;42.648;23.274;2024-02-15T13:13:00;93867.81;;;6.13;53.76
84710;BME280;75589;42.648;23.274;2024-02-15T13:15:26;93863.78;;;5.96;56.14
84710;BME280;75589;42.648;23.274;2024-02-15T13:17:53;93870.34;;;6.08;54.42
84710;BME280;75589;42.648;23.274;2024-02-15T13:20:21;93857.72;;;6.07;54.07